Time;durP1;ratioP1;P1;durP2;ratioP2;P2;SDS_P1;SDS_P2;PMS_P1;PMS_P2;Temp;Humidity;BMP_temperature;BMP_pressure;BME280_temperature;BME280_humidity;BME280_pressure;Samples;Min_cycle;Max_cycle;Signal;HPM_P1;HPM_P2
2023/02/19 00:01:20;;;;;;;36.63;29.15;;;;;;;2.31;100.00;96837.78;5118303;27;20031;-63
2023/02/19 00:03:54;;;;;;;36.53;30.40;;;;;;;2.27;100.00;96837.91;5116642;27;20027;-61
2023/02/19 00:06:20;;;;;;;37.03;29.95;;;;;;;2.28;100.00;96843.97;5116410;27;20706;-72
2023/02/19 00:08:46;;;;;;;31.88;27.73;;;;;;;2.24;100.00;96837.22;5120313;27;20028;-72
2023/02/19 00:11:15;;;;;;;32.53;28.08;;;;;;;2.23;100.00;96843.31;5116226;27;20093;-72
2023/02/19 00:13:42;;;;;;;36.85;30.98;;;;;;;2.20;100.00;96838.22;5098976;27;20401;-72
2023/02/19 00:16:13;;;;;;;34.55;29.13;;;;;;;2.17;100.00;96847.00;5117188;27;20033;-72
2023/02/19 00:18:39;;;;;;;30.80;25.77;;;;;;;2.16;100.00;96834.91;5118752;27;20047;-72
2023/02/19 00:21:04;;;;;;;30.38;24.70;;;;;;;2.14;100.00;96834.13;5119107;27;20484;-64
2023/02/19 00:23:30;;;;;;;30.33;24.85;;;;;;;2.12;100.00;96835.97;5120150;27;20029;-67
2023/02/19 00:25:56;;;;;;;30.75;23.15;;;;;;;2.15;100.00;96836.66;5115832;27;20023;-72
2023/02/19 00:28:22;;;;;;;23.85;20.25;;;;;;;2.17;100.00;96838.34;5118768;27;20023;-72
2023/02/19 00:30:47;;;;;;;20.35;16.50;;;;;;;2.19;100.00;96840.00;5120385;27;20051;-72
2023/02/19 00:33:13;;;;;;;24.05;21.48;;;;;;;2.18;100.00;96833.09;5118465;27;20049;-72
2023/02/19 00:35:38;;;;;;;27.42;23.15;;;;;;;2.13;100.00;96837.66;5117461;27;20039;-72
2023/02/19 00:38:04;;;;;;;28.55;23.55;;;;;;;2.16;100.00;96840.13;5118103;27;20508;-72
2023/02/19 00:40:29;;;;;;;24.17;20.23;;;;;;;2.18;100.00;96832.25;5116445;27;20060;-61
2023/02/19 00:42:55;;;;;;;24.20;20.23;;;;;;;2.16;100.00;96842.72;5115818;27;20035;-62
2023/02/19 00:45:20;;;;;;;24.60;19.98;;;;;;;2.13;100.00;96829.84;5119044;27;20030;-61
2023/02/19 00:47:46;;;;;;;19.52;17.45;;;;;;;2.21;100.00;96835.56;5119421;27;20015;-61
2023/02/19 00:50:11;;;;;;;20.85;17.27;;;;;;;2.20;100.00;96831.28;5118013;27;20023;-61
2023/02/19 00:52:38;;;;;;;20.17;17.50;;;;;;;2.16;100.00;96824.53;5116890;27;20544;-61
2023/02/19 00:55:04;;;;;;;21.15;18.95;;;;;;;2.15;100.00;96826.25;5111795;27;20035;-61
2023/02/19 00:57:29;;;;;;;22.10;19.42;;;;;;;2.11;100.00;96829.06;5117499;27;20019;-61
2023/02/19 00:59:55;;;;;;;24.55;20.70;;;;;;;2.07;100.00;96830.06;5119791;27;20020;-66
2023/02/19 01:02:20;;;;;;;29.13;20.67;;;;;;;2.01;100.00;96828.59;5119099;27;20024;-60
2023/02/19 01:04:45;;;;;;;24.75;20.10;;;;;;;2.00;100.00;96829.50;5116277;27;20023;-61
2023/02/19 01:07:11;;;;;;;29.80;25.73;;;;;;;1.95;100.00;96827.06;5116753;27;20072;-60
2023/02/19 01:09:37;;;;;;;25.25;21.65;;;;;;;1.94;100.00;96822.78;5118900;27;20023;-62
2023/02/19 01:12:04;;;;;;;24.27;20.42;;;;;;;1.90;100.00;96828.16;5117720;27;20395;-62
2023/02/19 01:14:29;;;;;;;25.65;22.42;;;;;;;1.87;100.00;96826.50;5116799;27;20027;-62
2023/02/19 01:16:54;;;;;;;22.95;20.55;;;;;;;1.90;100.00;96829.03;5118924;27;20031;-62
2023/02/19 01:19:20;;;;;;;23.02;19.65;;;;;;;1.76;100.00;96819.16;5115418;27;20019;-61
2023/02/19 01:21:45;;;;;;;23.27;20.15;;;;;;;1.74;100.00;96820.13;5118317;27;20106;-64
2023/02/19 01:24:10;;;;;;;23.45;19.45;;;;;;;1.76;100.00;96816.53;5116766;27;20051;-67
2023/02/19 01:26:36;;;;;;;20.60;18.10;;;;;;;1.73;100.00;96815.84;5118879;27;20008;-67
2023/02/19 01:29:02;;;;;;;19.50;17.45;;;;;;;1.69;100.00;96818.56;5115175;27;20027;-68
2023/02/19 01:31:29;;;;;;;19.42;17.42;;;;;;;1.65;100.00;96816.97;5117568;27;20074;-67
2023/02/19 01:33:57;;;;;;;20.48;18.38;;;;;;;1.63;100.00;96817.94;5115235;27;20011;-67
2023/02/19 01:36:23;;;;;;;20.90;17.75;;;;;;;1.62;100.00;96809.28;5115418;27;20027;-67
2023/02/19 01:38:48;;;;;;;18.20;16.30;;;;;;;1.60;100.00;96811.09;5117188;27;20046;-64
2023/02/19 01:41:19;;;;;;;17.63;15.65;;;;;;;1.59;100.00;96811.19;5116746;27;20020;-65
2023/02/19 01:44:00;;;;;;;17.33;15.55;;;;;;;1.58;100.00;96805.13;5111549;27;20059;-72
2023/02/19 01:46:28;;;;;;;17.20;15.43;;;;;;;1.56;100.00;96810.41;5115111;27;20492;-72
2023/02/19 01:48:56;;;;;;;16.50;14.75;;;;;;;1.56;100.00;96799.16;5115429;27;20023;-72
2023/02/19 01:51:21;;;;;;;16.70;15.02;;;;;;;1.52;100.00;96802.78;5115618;27;20027;-72
2023/02/19 01:53:53;;;;;;;16.35;14.75;;;;;;;1.51;100.00;96801.91;5118606;27;20068;-72
2023/02/19 01:56:20;;;;;;;15.07;13.57;;;;;;;1.50;100.00;96795.03;5117682;27;20434;-72
2023/02/19 01:58:46;;;;;;;15.52;13.95;;;;;;;1.46;100.00;96793.47;5115614;27;20107;-61
2023/02/19 02:01:11;;;;;;;13.65;12.25;;;;;;;1.42;100.00;96800.53;5117949;27;20519;-67
2023/02/19 02:03:39;;;;;;;14.85;13.38;;;;;;;1.43;100.00;96797.03;5115123;27;20026;-67
2023/02/19 02:06:12;;;;;;;13.57;12.15;;;;;;;1.41;100.00;96791.03;5116870;27;20117;-68
2023/02/19 02:11:23;;;;;;;13.20;11.90;;;;;;;1.38;100.00;96782.56;5116177;27;20026;-67
2023/02/19 02:13:50;;;;;;;13.43;12.05;;;;;;;1.36;100.00;96786.97;5115277;27;20023;-67
2023/02/19 02:16:29;;;;;;;10.82;9.82;;;;;;;1.46;100.00;96787.44;5115515;27;20110;-67
2023/02/19 02:19:04;;;;;;;11.23;10.05;;;;;;;1.46;100.00;96793.47;5116248;27;20109;-67
2023/02/19 02:21:45;;;;;;;;;;;;;;;1.43;100.00;96789.22;5120593;27;20030;-61
2023/02/19 02:24:17;;;;;;;9.80;9.00;;;;;;;1.39;100.00;96787.66;5114884;27;19920;-61
2023/02/19 02:27:11;;;;;;;10.50;9.40;;;;;;;1.37;100.00;96786.06;5116231;27;20110;-61
2023/02/19 02:30:02;;;;;;;10.27;9.25;;;;;;;1.38;100.00;96787.75;5120633;27;20114;-61
2023/02/19 02:32:37;;;;;;;15.82;12.98;;;;;;;1.41;100.00;96780.66;5113769;27;20043;-61
2023/02/19 02:35:08;;;;;;;14.43;12.82;;;;;;;1.40;100.00;96778.97;5114756;27;20055;-61
2023/02/19 02:37:37;;;;;;;10.85;9.73;;;;;;;1.32;100.00;96774.97;5115007;27;20051;-66
2023/02/19 02:40:05;;;;;;;10.35;9.02;;;;;;;1.28;100.00;96787.25;5112531;27;20046;-61
2023/02/19 02:42:32;;;;;;;15.45;13.02;;;;;;;1.28;100.00;96774.28;5116857;27;20023;-61
2023/02/19 02:45:33;;;;;;;22.77;17.77;;;;;;;1.26;100.00;96782.09;5115486;27;20031;-62
2023/02/19 02:48:15;;;;;;;19.85;12.73;;;;;;;1.23;100.00;96781.38;5115063;27;20476;-61
2023/02/19 02:50:53;;;;;;;11.77;10.50;;;;;;;1.20;100.00;96782.34;5114691;27;20491;-62
2023/02/19 02:56:25;;;;;;;21.52;17.20;;;;;;;1.18;100.00;96785.88;5109110;28;20100;-66
2023/02/19 02:58:52;;;;;;;25.52;18.88;;;;;;;1.13;100.00;96781.72;5107186;28;20042;-60
2023/02/19 03:05:50;;;;;;;41.95;30.55;;;;;;;1.06;100.00;96762.09;5106784;28;20047;-60
2023/02/19 03:07:25;;;;;;;39.00;26.88;;;;;;;1.08;100.00;96762.88;5091544;28;20404;-60
2023/02/19 03:09:52;;;;;;;28.75;22.98;;;;;;;1.08;100.00;96764.63;5108894;28;20187;-60
2023/02/19 03:20:45;;;;;;;38.45;25.85;;;;;;;0.96;100.00;96759.00;5109203;28;20035;-61
2023/02/19 03:23:13;;;;;;;39.55;27.95;;;;;;;0.97;100.00;96754.63;5109174;28;20020;-61
2023/02/19 03:31:14;;;;;;;39.00;29.10;;;;;;;1.00;100.00;96757.16;5112681;28;20097;-61
2023/02/19 03:33:41;;;;;;;40.72;29.38;;;;;;;0.93;100.00;96751.34;5113194;28;20447;-64
2023/02/19 03:36:11;;;;;;;37.42;28.23;;;;;;;0.92;100.00;96749.66;5099389;28;20532;-66
2023/02/19 03:38:48;;;;;;;37.35;24.90;;;;;;;0.88;100.00;96748.03;5087980;28;20026;-66
2023/02/19 03:41:32;;;;;;;31.15;23.10;;;;;;;0.88;100.00;96749.81;5093083;28;20051;-66
2023/02/19 03:44:17;;;;;;;31.85;23.67;;;;;;;0.90;100.00;96751.47;5091957;28;20039;-66
2023/02/19 03:46:48;;;;;;;28.17;21.60;;;;;;;0.84;100.00;96756.84;5092639;28;20028;-67
2023/02/19 03:49:41;;;;;;;33.45;22.48;;;;;;;0.76;100.00;96757.13;5092946;28;20578;-66
2023/02/19 03:52:15;;;;;;;31.75;25.10;;;;;;;0.71;100.00;96751.25;5092792;28;20482;-66
2023/02/19 03:55:01;;;;;;;33.50;23.15;;;;;;;0.67;100.00;96753.13;5094400;28;20107;-64
2023/02/19 03:57:35;;;;;;;33.90;25.02;;;;;;;0.65;100.00;96748.91;5083059;28;20043;-65
2023/02/19 04:00:16;;;;;;;28.10;21.60;;;;;;;0.67;100.00;96741.91;5089592;28;20024;-64
2023/02/19 04:02:52;;;;;;;22.98;18.70;;;;;;;0.68;100.00;96744.47;5088469;28;20073;-64
2023/02/19 04:05:23;;;;;;;25.58;20.10;;;;;;;0.65;100.00;96738.53;5092305;28;20050;-64
2023/02/19 04:07:52;;;;;;;28.55;20.25;;;;;;;0.58;100.00;96732.72;5091782;28;20051;-64
2023/02/19 04:10:18;;;;;;;24.10;19.27;;;;;;;0.54;100.00;96737.16;5088909;28;20396;-65
2023/02/19 04:12:50;;;;;;;35.83;24.55;;;;;;;0.55;100.00;96736.28;5088604;28;20024;-61
2023/02/19 04:15:21;;;;;;;29.20;22.05;;;;;;;0.56;100.00;96734.50;5085278;28;20036;-65
2023/02/19 04:17:55;;;;;;;21.92;18.17;;;;;;;0.53;100.00;96735.47;5085864;28;20024;-67
2023/02/19 04:20:22;;;;;;;20.75;16.88;;;;;;;0.51;100.00;96734.66;5080452;28;20032;-67
2023/02/19 04:22:48;;;;;;;20.98;16.10;;;;;;;0.51;100.00;96736.44;5092038;28;20028;-67
2023/02/19 04:25:14;;;;;;;23.17;17.88;;;;;;;0.48;100.00;96745.16;5086018;28;20028;-67
2023/02/19 04:27:41;;;;;;;21.65;17.25;;;;;;;0.43;100.00;96750.47;5091525;28;20089;-66
2023/02/19 04:30:08;;;;;;;26.67;22.85;;;;;;;0.40;100.00;96747.16;5085817;28;20031;-66
2023/02/19 04:32:33;;;;;;;28.95;23.40;;;;;;;0.39;100.00;96753.25;5092029;28;20464;-72
2023/02/19 04:34:58;;;;;;;17.77;15.25;;;;;;;0.40;100.00;96744.59;5102156;28;20127;-61
2023/02/19 04:37:24;;;;;;;18.75;15.85;;;;;;;0.41;100.00;96746.28;5111102;28;20048;-60
2023/02/19 04:39:49;;;;;;;18.95;14.43;;;;;;;0.41;100.00;96746.28;5111725;28;20517;-61
2023/02/19 04:42:14;;;;;;;17.80;15.05;;;;;;;0.39;100.00;96732.53;5112197;28;20473;-61
2023/02/19 04:44:40;;;;;;;17.77;15.50;;;;;;;0.37;100.00;96745.53;5111966;28;20020;-61
2023/02/19 04:47:05;;;;;;;16.35;13.50;;;;;;;0.37;100.00;96734.31;5112065;28;20485;-61
2023/02/19 04:49:31;;;;;;;22.15;16.70;;;;;;;0.40;100.00;96742.81;5111810;28;20035;-61
2023/02/19 04:51:56;;;;;;;19.63;16.50;;;;;;;0.39;100.00;96732.53;5112226;28;20114;-62
2023/02/19 04:54:21;;;;;;;18.45;16.42;;;;;;;0.36;100.00;96730.88;5101645;28;20489;-64
2023/02/19 04:56:49;;;;;;;19.85;17.00;;;;;;;0.33;100.00;96722.34;5108358;28;20036;-72
2023/02/19 04:59:15;;;;;;;17.20;13.63;;;;;;;0.32;100.00;96726.72;5111991;28;20446;-72
2023/02/19 05:01:40;;;;;;;15.25;12.43;;;;;;;0.32;100.00;96731.03;5113357;27;20027;-71
2023/02/19 05:04:05;;;;;;;15.27;13.68;;;;;;;0.41;100.00;96733.31;5110587;28;20036;-72
2023/02/19 05:06:31;;;;;;;23.63;19.27;;;;;;;0.47;100.00;96733.09;5110561;28;20027;-72
2023/02/19 05:08:56;;;;;;;21.73;17.42;;;;;;;0.46;100.00;96728.81;5111392;28;20064;-72
2023/02/19 05:11:22;;;;;;;18.40;15.30;;;;;;;0.40;100.00;96732.47;5111731;28;20076;-61
2023/02/19 05:13:48;;;;;;;25.77;17.95;;;;;;;0.40;100.00;96735.03;5111510;28;20023;-61
2023/02/19 05:16:17;;;;;;;23.20;17.20;;;;;;;0.38;100.00;96733.44;5111449;28;20024;-64
2023/02/19 05:18:44;;;;;;;22.33;16.15;;;;;;;0.48;100.00;96727.00;5110852;28;20023;-65
2023/02/19 05:21:11;;;;;;;24.73;18.92;;;;;;;0.47;100.00;96737.44;5111612;28;20049;-64
2023/02/19 05:23:36;;;;;;;22.05;18.25;;;;;;;0.40;100.00;96726.44;5111120;28;20516;-64
2023/02/19 05:26:07;;;;;;;25.98;20.05;;;;;;;0.36;100.00;96727.47;5111582;28;20024;-64
2023/02/19 05:28:33;;;;;;;26.38;19.17;;;;;;;0.32;100.00;96726.72;5111384;28;20436;-64
2023/02/19 05:31:06;;;;;;;33.90;20.70;;;;;;;0.30;100.00;96719.88;5111523;28;20031;-61
2023/02/19 05:33:32;;;;;;;24.38;18.38;;;;;;;0.28;100.00;96728.56;5110886;28;20027;-72
2023/02/19 05:35:58;;;;;;;20.65;16.23;;;;;;;0.23;100.00;96733.03;5100406;28;20062;-73
2023/02/19 05:38:23;;;;;;;28.35;19.88;;;;;;;0.18;100.00;96726.31;5104688;28;20020;-72
2023/02/19 05:40:49;;;;;;;23.98;18.05;;;;;;;0.17;100.00;96730.69;5103019;28;20654;-72
2023/02/19 05:43:15;;;;;;;26.65;19.13;;;;;;;0.07;100.00;96742.22;5103633;28;20024;-72
2023/02/19 05:45:40;;;;;;;25.88;19.25;;;;;;;0.04;100.00;96735.44;5093966;28;20026;-72
2023/02/19 05:48:07;;;;;;;31.55;21.17;;;;;;;0.13;100.00;96731.69;5108512;28;20015;-72
2023/02/19 05:50:34;;;;;;;26.23;17.75;;;;;;;0.18;100.00;96728.91;5092650;28;20023;-65
2023/02/19 05:53:00;;;;;;;26.55;21.02;;;;;;;0.21;100.00;96737.44;5091202;28;20024;-61
2023/02/19 05:55:26;;;;;;;22.80;18.35;;;;;;;0.14;100.00;96734.22;5091385;28;20554;-62
2023/02/19 05:57:51;;;;;;;24.75;17.77;;;;;;;0.09;100.00;96738.69;5097889;28;20020;-61
2023/02/19 06:00:18;;;;;;;27.80;17.52;;;;;;;0.06;100.00;96735.34;5099802;28;20032;-62
2023/02/19 06:02:44;;;;;;;18.52;15.73;;;;;;;0.02;100.00;96729.47;5096618;28;20390;-61
2023/02/19 06:05:09;;;;;;;18.20;14.20;;;;;;;0.02;100.00;96745.00;5088369;28;20081;-61
2023/02/19 06:07:35;;;;;;;12.20;10.68;;;;;;;0.02;100.00;96746.72;5090196;28;20052;-61
2023/02/19 06:10:01;;;;;;;12.13;10.85;;;;;;;0.02;100.00;96733.78;5098614;28;20078;-72
2023/02/19 06:12:27;;;;;;;12.15;10.93;;;;;;;-0.03;100.00;96739.97;5089963;28;20059;-72
2023/02/19 06:14:52;;;;;;;16.00;11.10;;;;;;;-0.01;100.00;96747.66;5090621;28;20081;-71
2023/02/19 06:17:17;;;;;;;13.27;11.80;;;;;;;-0.05;100.00;96741.75;5089938;28;20052;-71
2023/02/19 06:19:43;;;;;;;13.25;10.80;;;;;;;-0.07;100.00;96740.09;5090231;28;20031;-72
2023/02/19 06:22:08;;;;;;;13.80;11.55;;;;;;;-0.11;100.00;96746.28;5089846;28;20558;-72
2023/02/19 06:24:36;;;;;;;13.68;10.73;;;;;;;-0.14;100.00;96739.44;5089944;28;20080;-71
2023/02/19 06:27:05;;;;;;;10.85;9.75;;;;;;;-0.16;100.00;96741.25;5090359;28;20024;-72
2023/02/19 06:29:31;;;;;;;11.35;10.15;;;;;;;-0.16;100.00;96736.94;5091637;28;20031;-65
2023/02/19 06:31:57;;;;;;;13.20;10.90;;;;;;;-0.10;100.00;96740.22;5092084;28;20417;-68
2023/02/19 06:34:22;;;;;;;9.98;8.98;;;;;;;-0.08;100.00;96747.03;5095236;28;20053;-68
2023/02/19 06:36:48;;;;;;;11.30;9.20;;;;;;;-0.10;100.00;96750.56;5109786;28;20024;-67
2023/02/19 06:39:13;;;;;;;10.18;9.20;;;;;;;-0.17;100.00;96760.25;5110261;28;20495;-68
2023/02/19 06:41:39;;;;;;;9.95;9.00;;;;;;;-0.17;100.00;96762.84;5090231;28;20039;-67
2023/02/19 06:44:04;;;;;;;9.25;8.38;;;;;;;-0.13;100.00;96767.03;5109439;28;20063;-68
2023/02/19 06:46:29;;;;;;;11.73;10.52;;;;;;;-0.03;100.00;96776.22;5109999;28;20028;-68
2023/02/19 06:48:55;;;;;;;30.50;27.45;;;;;;;0.06;100.00;96775.06;5109896;28;20028;-64
2023/02/19 06:51:25;;;;;;;15.45;14.00;;;;;;;0.04;100.00;96769.09;5110149;28;20417;-65
2023/02/19 06:53:51;;;;;;;12.50;11.30;;;;;;;0.04;100.00;96770.81;5105531;28;20022;-65
2023/02/19 06:56:27;;;;;;;12.88;10.70;;;;;;;0.01;100.00;96769.19;5109552;28;20023;-65
2023/02/19 06:58:56;;;;;;;8.85;8.05;;;;;;;0.01;100.00;96757.97;5113513;28;20039;-65
2023/02/19 07:01:22;;;;;;;10.60;9.63;;;;;;;-0.02;100.00;96754.59;5110561;28;20102;-65
2023/02/19 07:03:48;;;;;;;12.18;11.02;;;;;;;-0.03;100.00;96752.03;5109575;28;20027;-65
2023/02/19 07:06:16;;;;;;;18.58;14.20;;;;;;;0.01;100.00;96747.63;5109153;28;20035;-65
2023/02/19 07:08:41;;;;;;;16.67;14.73;;;;;;;0.06;100.00;96745.72;5109610;28;20019;-64
2023/02/19 07:11:06;;;;;;;15.05;13.63;;;;;;;0.07;100.00;96750.84;5091211;28;20204;-61
2023/02/19 07:13:32;;;;;;;16.00;14.30;;;;;;;0.08;100.00;96762.03;5109801;28;20019;-61
2023/02/19 07:16:00;;;;;;;17.50;15.82;;;;;;;0.09;100.00;96769.78;5109157;28;20031;-61
2023/02/19 07:18:25;;;;;;;14.98;13.57;;;;;;;0.13;100.00;96762.75;5109866;28;20032;-61
2023/02/19 07:20:50;;;;;;;14.63;13.13;;;;;;;0.13;100.00;96762.75;5109305;28;20075;-61
2023/02/19 07:23:16;;;;;;;14.77;13.25;;;;;;;0.14;100.00;96767.03;5109496;28;20489;-61
2023/02/19 07:25:41;;;;;;;16.75;13.68;;;;;;;0.14;100.00;96778.22;5108922;28;20042;-61
2023/02/19 07:28:06;;;;;;;15.63;14.02;;;;;;;0.20;100.00;96779.78;5109707;28;20015;-67
2023/02/19 07:30:32;;;;;;;15.70;14.23;;;;;;;0.24;100.00;96775.34;5109277;28;20024;-68
2023/02/19 07:32:57;;;;;;;14.30;13.00;;;;;;;0.24;100.00;96776.19;5109585;28;20451;-67
2023/02/19 07:35:23;;;;;;;15.05;13.63;;;;;;;0.28;100.00;96779.53;5108585;28;20118;-68
2023/02/19 07:37:48;;;;;;;14.90;13.60;;;;;;;0.27;100.00;96786.44;5109065;28;20100;-68
2023/02/19 07:40:13;;;;;;;15.15;13.65;;;;;;;0.22;100.00;96785.75;5108314;28;20035;-68
2023/02/19 07:42:39;;;;;;;13.52;12.30;;;;;;;0.24;100.00;96789.13;5109218;28;20051;-67
2023/02/19 07:45:04;;;;;;;11.98;10.77;;;;;;;0.29;100.00;96789.00;5108928;28;20413;-67
2023/02/19 07:47:30;;;;;;;12.85;11.25;;;;;;;0.35;100.00;96793.13;5109622;28;20098;-61
2023/02/19 07:49:55;;;;;;;12.85;11.55;;;;;;;0.39;100.00;96780.00;5109195;28;20043;-64
2023/02/19 07:52:21;;;;;;;10.50;9.60;;;;;;;0.47;100.00;96779.72;5108873;28;20023;-64
2023/02/19 07:54:46;;;;;;;11.40;10.38;;;;;;;0.53;100.00;96771.75;5109001;28;20031;-64
2023/02/19 07:57:11;;;;;;;13.02;11.75;;;;;;;0.61;100.00;96768.88;5108875;28;20026;-64
2023/02/19 07:59:37;;;;;;;15.50;14.07;;;;;;;0.67;100.00;96762.66;5109350;28;20030;-64
2023/02/19 08:04:46;;;;;;;21.35;14.32;;;;;;;0.74;100.00;96776.25;5107561;28;20057;-61
2023/02/19 08:07:12;;;;;;;14.20;12.77;;;;;;;0.79;100.00;96780.38;5109144;28;20486;-60
2023/02/19 08:09:37;;;;;;;14.75;13.27;;;;;;;0.89;100.00;96780.03;5108635;28;20026;-64
2023/02/19 08:14:46;;;;;;;14.23;12.80;;;;;;;1.07;100.00;96781.94;5110160;28;20042;-64
2023/02/19 08:17:12;;;;;;;13.48;12.27;;;;;;;1.22;100.00;96771.91;5123206;27;20110;-64
2023/02/19 08:19:37;;;;;;;16.30;14.65;;;;;;;1.31;100.00;96774.16;5111395;28;20072;-64
2023/02/19 08:22:03;;;;;;;20.67;18.48;;;;;;;1.46;100.00;96784.84;5112423;28;20034;-64
2023/02/19 08:24:29;;;;;;;37.50;30.98;;;;;;;1.61;100.00;96786.84;5112664;28;20097;-60
2023/02/19 08:26:55;;;;;;;21.67;19.10;;;;;;;1.79;100.00;96800.88;5112316;28;20107;-60
2023/02/19 08:29:20;;;;;;;21.45;19.42;;;;;;;2.10;100.00;96802.22;5112598;28;20111;-61
2023/02/19 08:31:46;;;;;;;12.10;11.05;;;;;;;2.43;100.00;96806.09;5111032;28;20034;-61
2023/02/19 08:34:11;;;;;;;10.57;9.63;;;;;;;3.06;100.00;96823.38;5089574;28;20661;-61
2023/02/19 08:36:37;;;;;;;35.05;31.20;;;;;;;3.85;100.00;96830.22;5091157;28;20101;-62
2023/02/19 08:39:02;;;;;;;14.63;13.13;;;;;;;4.51;100.00;96833.13;5091689;28;20033;-61
2023/02/19 08:41:28;;;;;;;10.35;7.70;;;;;;;5.08;100.00;96825.94;5087804;28;20016;-62
2023/02/19 08:43:53;;;;;;;9.98;8.90;;;;;;;5.38;100.00;96823.50;5088941;28;20533;-75
2023/02/19 08:46:18;;;;;;;14.95;13.43;;;;;;;5.60;98.66;96822.34;5088296;28;20160;-63
2023/02/19 08:48:44;;;;;;;10.23;9.23;;;;;;;5.78;95.84;96828.34;5089598;28;20024;-62
2023/02/19 08:51:10;;;;;;;7.55;6.75;;;;;;;5.96;93.50;96818.63;5089709;28;20028;-64
2023/02/19 08:53:38;;;;;;;6.85;6.32;;;;;;;5.94;91.95;96825.72;5091226;28;20638;-65
2023/02/19 08:56:08;;;;;;;7.78;7.00;;;;;;;6.06;90.73;96828.59;5088488;28;20578;-64
2023/02/19 08:58:34;;;;;;;8.23;7.43;;;;;;;6.00;90.66;96837.63;5088280;28;20516;-62
2023/02/19 09:01:00;;;;;;;11.73;9.70;;;;;;;6.05;91.62;96835.59;5088485;28;20031;-62
2023/02/19 09:03:25;;;;;;;11.43;10.32;;;;;;;6.13;90.54;96843.84;5089686;28;20565;-65
2023/02/19 09:05:51;;;;;;;7.75;6.93;;;;;;;6.29;88.01;96840.38;5089520;28;20020;-60
2023/02/19 09:08:18;;;;;;;6.10;5.50;;;;;;;6.36;87.37;96839.09;5087145;28;20091;-60
2023/02/19 09:10:43;;;;;;;6.95;6.28;;;;;;;6.51;88.07;96836.53;5088280;28;20539;-60
2023/02/19 09:13:08;;;;;;;34.60;21.58;;;;;;;6.66;85.54;96840.03;5091413;28;20028;-60
2023/02/19 09:15:35;;;;;;;20.25;13.25;;;;;;;6.83;84.17;96839.91;5089879;28;20400;-61
2023/02/19 09:18:01;;;;;;;8.68;7.78;;;;;;;7.04;84.91;96842.19;5091118;28;20035;-60
2023/02/19 09:20:26;;;;;;;28.63;17.38;;;;;;;7.32;84.24;96835.25;5088952;28;20020;-60
2023/02/19 09:22:57;;;;;;;21.48;12.32;;;;;;;7.59;83.34;96839.75;5083608;28;20028;-61
2023/02/19 09:25:22;;;;;;;11.38;7.32;;;;;;;7.83;80.10;96839.13;5087114;28;20491;-67
2023/02/19 09:27:47;;;;;;;10.50;9.20;;;;;;;7.99;77.94;96845.09;5089799;28;20023;-71
2023/02/19 09:30:13;;;;;;;13.65;10.43;;;;;;;8.10;78.44;96831.31;5085088;28;20031;-72
2023/02/19 09:32:38;;;;;;;6.13;5.57;;;;;;;8.36;77.00;96836.66;5080069;28;20466;-71
2023/02/19 09:35:04;;;;;;;6.10;5.50;;;;;;;8.53;75.23;96837.38;5088263;28;20048;-72
2023/02/19 09:37:29;;;;;;;6.72;5.60;;;;;;;8.63;75.49;96843.72;5104384;28;20370;-72
2023/02/19 09:39:55;;;;;;;6.43;5.93;;;;;;;8.86;75.96;96841.34;5109811;28;20028;-72
2023/02/19 09:42:28;;;;;;;8.38;5.55;;;;;;;8.98;74.54;96837.84;5106490;28;20027;-61
2023/02/19 09:44:56;;;;;;;7.55;6.85;;;;;;;9.11;74.36;96837.88;5084075;28;20019;-62
2023/02/19 09:47:27;;;;;;;15.93;11.93;;;;;;;9.34;72.77;96837.25;5110455;28;20520;-66
2023/02/19 09:50:14;;;;;;;7.00;6.30;;;;;;;9.52;73.41;96835.97;5106892;28;20102;-66
2023/02/19 09:52:44;;;;;;;5.25;4.55;;;;;;;9.66;71.20;96836.78;5107618;28;20042;-65
2023/02/19 09:55:19;;;;;;;5.05;3.78;;;;;;;9.88;70.28;96829.03;5110583;28;20035;-67
2023/02/19 09:57:45;;;;;;;4.75;3.95;;;;;;;10.02;68.46;96830.69;5126363;27;20015;-67
2023/02/19 10:00:11;;;;;;;3.63;3.33;;;;;;;9.93;68.91;96828.72;5110564;28;20041;-66
2023/02/19 10:02:37;;;;;;;4.68;3.85;;;;;;;10.20;69.74;96826.84;5109649;27;20027;-64
2023/02/19 10:05:10;;;;;;;4.13;3.83;;;;;;;10.44;68.38;96818.97;5110094;28;20028;-61
2023/02/19 10:07:43;;;;;;;5.50;3.97;;;;;;;10.35;66.62;96816.97;5110507;28;20095;-61
2023/02/19 10:10:11;;;;;;;5.10;3.75;;;;;;;10.46;67.54;96820.53;5110091;28;20020;-61
2023/02/19 10:12:40;;;;;;;7.22;4.75;;;;;;;10.70;66.97;96813.53;5110582;28;20037;-61
2023/02/19 10:15:15;;;;;;;4.90;4.28;;;;;;;11.10;66.88;96815.78;5110583;28;20580;-61
2023/02/19 10:17:41;;;;;;;4.60;4.15;;;;;;;11.22;67.01;96810.53;5110058;28;20493;-60
2023/02/19 10:20:23;;;;;;;6.05;4.35;;;;;;;11.24;67.20;96803.34;5110269;28;20073;-69
2023/02/19 10:23:09;;;;;;;5.28;4.40;;;;;;;11.41;67.65;96800.25;5075495;28;20058;-64
2023/02/19 10:25:39;;;;;;;4.53;4.13;;;;;;;11.41;66.12;96794.97;5105838;28;20036;-60
2023/02/19 10:28:13;;;;;;;5.90;4.30;;;;;;;11.66;67.39;96798.31;5110308;28;20159;-60
2023/02/19 10:30:38;;;;;;;4.03;3.60;;;;;;;12.02;67.41;96792.88;5109796;28;20427;-60
2023/02/19 10:33:13;;;;;;;3.88;3.58;;;;;;;12.13;65.92;96789.38;5110301;28;20027;-60
2023/02/19 10:35:52;;;;;;;4.75;3.53;;;;;;;12.27;66.38;96770.63;5108341;28;20035;-60
2023/02/19 10:38:22;;;;;;;3.65;3.45;;;;;;;12.37;66.46;96785.69;5109766;28;20027;-60
2023/02/19 10:40:51;;;;;;;4.18;3.53;;;;;;;12.40;65.41;96773.09;5109713;28;20051;-60
2023/02/19 10:43:30;;;;;;;3.72;3.50;;;;;;;12.48;63.66;96775.06;5110342;28;20103;-63
2023/02/19 10:45:57;;;;;;;3.33;3.13;;;;;;;12.84;64.37;96788.00;5097985;28;20027;-62
2023/02/19 10:48:33;;;;;;;3.47;3.22;;;;;;;13.27;62.08;96788.78;5109522;28;20405;-61
2023/02/19 10:51:03;;;;;;;3.75;3.22;;;;;;;13.61;62.26;96784.06;5110042;28;20028;-62
2023/02/19 10:54:03;;;;;;;3.35;3.05;;;;;;;13.44;61.62;96785.56;5109610;28;20042;-61
2023/02/19 10:56:30;;;;;;;3.35;3.10;;;;;;;13.50;61.51;96788.63;5088560;28;20058;-62
2023/02/19 10:59:14;;;;;;;2.90;2.70;;;;;;;13.55;59.33;96791.69;5109875;28;20542;-60
2023/02/19 11:01:59;;;;;;;3.97;3.67;;;;;;;13.69;59.29;96786.06;5096987;28;20152;-63
2023/02/19 11:04:27;;;;;;;3.13;2.57;;;;;;;14.15;57.35;96780.28;5108809;28;20103;-60
2023/02/19 11:06:53;;;;;;;2.55;2.35;;;;;;;14.44;57.79;96785.63;5096813;28;20394;-60
2023/02/19 11:09:31;;;;;;;2.50;2.40;;;;;;;14.75;55.23;96780.19;5101483;28;20070;-59
2023/02/19 11:11:58;;;;;;;2.47;2.28;;;;;;;14.88;55.66;96782.53;5106387;28;20055;-59
2023/02/19 11:14:26;;;;;;;2.70;2.50;;;;;;;15.12;54.48;96783.88;5102974;28;20397;-60
2023/02/19 11:16:55;;;;;;;2.28;2.15;;;;;;;15.03;53.62;96790.91;5107489;28;20504;-60
2023/02/19 11:19:38;;;;;;;2.08;1.98;;;;;;;15.30;53.91;96791.09;5106900;28;20031;-63
2023/02/19 11:22:36;;;;;;;2.28;2.08;;;;;;;15.52;53.20;96792.56;5104373;28;20035;-74
2023/02/19 11:25:15;;;;;;;2.40;2.30;;;;;;;15.43;52.02;96791.59;5103563;28;20039;-75
2023/02/19 11:28:15;;;;;;;2.75;2.55;;;;;;;15.68;51.97;96794.56;5103902;28;20023;-76
2023/02/19 11:30:42;;;;;;;2.95;2.72;;;;;;;15.89;52.31;96788.22;5072880;28;20028;-68
2023/02/19 11:33:18;;;;;;;3.03;2.83;;;;;;;16.13;49.33;96792.94;5100199;28;20687;-71
2023/02/19 11:35:44;;;;;;;4.28;2.78;;;;;;;15.89;50.88;96777.59;5080209;28;20120;-71
2023/02/19 11:38:12;;;;;;;2.92;2.72;;;;;;;15.92;49.80;96771.97;5079803;28;20580;-61
2023/02/19 11:40:56;;;;;;;2.20;2.10;;;;;;;16.20;50.14;96771.94;5091977;28;20054;-62
2023/02/19 11:43:30;;;;;;;1.90;1.80;;;;;;;16.87;48.18;96773.34;5088735;28;20050;-66
2023/02/19 11:46:32;;;;;;;2.63;2.42;;;;;;;16.80;47.80;96758.97;5089616;28;20058;-65
2023/02/19 11:49:00;;;;;;;2.17;2.08;;;;;;;17.07;47.39;96760.69;5091711;28;20119;-64
2023/02/19 11:51:51;;;;;;;3.33;3.03;;;;;;;17.32;46.51;96758.16;5093000;28;20145;-67
2023/02/19 11:54:38;;;;;;;4.07;3.67;;;;;;;17.20;46.57;96759.44;5086221;28;20034;-66
2023/02/19 11:57:21;;;;;;;3.10;2.80;;;;;;;17.10;46.60;96759.56;5085453;28;20032;-65
2023/02/19 12:00:16;;;;;;;2.92;2.67;;;;;;;17.30;46.44;96754.84;5091748;28;20020;-62